Terminal Aerodrome Forecast
Issued by NWS

Home | Current Version | Previous Version | Graphics & Text | Print | Product List | Glossary Off
Versions: 1 2 3 4 5 6 7 8 9 10 11 12 13 14 15 16 17 18 19 20 21 22 23 24 25 26 27

683
FTUS43 KTOP 270408 AAC
TAFFOE
TAF AMD
KFOE 270408Z 2704/2724 03007KT 3SM SHRA BR SCT012 OVC040
      TEMPO 2704/2706 2SM SHRA BR BKN011
     FM270800 02009KT 6SM -RA BR OVC008
      TEMPO 2709/2712 4SM RA SCT008 OVC011
     FM271600 36009KT P6SM OVC013
     FM272200 01007KT P6SM BKN040=

USA.gov is the U.S. government's official web portal to all federal, state and local government web resources and services.